createdAt,value
2018-04-24T00:00:06.733Z,15.47
2018-04-24T00:01:06.868Z,15.47
2018-04-24T00:02:07.011Z,15.50
2018-04-24T00:03:07.167Z,15.50
2018-04-24T00:04:07.284Z,15.45
2018-04-24T00:05:07.448Z,15.51
2018-04-24T00:06:07.585Z,15.51
2018-04-24T00:07:07.720Z,15.44
2018-04-24T00:08:07.860Z,15.51
2018-04-24T00:09:07.995Z,15.40
2018-04-24T00:10:08.137Z,15.43
2018-04-24T00:11:08.271Z,15.43
2018-04-24T00:12:08.408Z,15.41
2018-04-24T00:13:08.552Z,15.29
2018-04-24T00:14:08.723Z,15.38
2018-04-24T00:15:08.831Z,15.26
2018-04-24T00:16:08.978Z,15.33
2018-04-24T00:17:09.119Z,15.38
2018-04-24T00:18:09.330Z,15.41
2018-04-24T00:19:09.405Z,15.38
2018-04-24T00:20:09.546Z,15.35
2018-04-24T00:21:09.688Z,15.26
2018-04-24T00:22:09.848Z,15.20
2018-04-24T00:23:09.974Z,15.25
2018-04-24T00:24:10.117Z,15.29
2018-04-24T00:25:10.258Z,15.26
2018-04-24T00:26:10.448Z,15.27
2018-04-24T00:27:10.534Z,15.20
2018-04-24T00:28:10.673Z,15.23
2018-04-24T00:29:10.819Z,15.20
2018-04-24T00:30:10.956Z,15.19
2018-04-24T00:31:11.094Z,15.08
2018-04-24T00:32:11.236Z,15.05
2018-04-24T00:33:11.383Z,14.96
2018-04-24T00:34:12.214Z,14.77
2018-04-24T00:35:11.632Z,14.71
2018-04-24T00:36:11.773Z,14.67
2018-04-24T00:37:11.916Z,14.67
2018-04-24T00:38:12.056Z,14.61
2018-04-24T00:39:12.194Z,14.74
2018-04-24T00:40:12.329Z,14.78
2018-04-24T00:41:12.469Z,14.82
2018-04-24T00:42:12.643Z,14.82
2018-04-24T00:43:12.772Z,14.78
2018-04-24T00:44:12.906Z,14.82
2018-04-24T00:45:13.053Z,14.73
2018-04-24T00:46:13.196Z,14.82
2018-04-24T00:47:13.322Z,14.86
2018-04-24T00:48:13.460Z,14.82
2018-04-24T00:49:13.640Z,14.79
2018-04-24T00:50:13.745Z,14.86
2018-04-24T00:51:13.880Z,14.79
2018-04-24T00:52:14.026Z,14.85
2018-04-24T00:53:14.222Z,14.83
2018-04-24T00:54:14.352Z,14.73
2018-04-24T00:55:14.492Z,14.79
2018-04-24T00:56:14.640Z,14.74
2018-04-24T00:57:14.776Z,14.64
2018-04-24T00:58:14.923Z,14.59
2018-04-24T00:59:15.064Z,14.61
2018-04-24T01:00:15.234Z,14.59
2018-04-24T01:01:15.372Z,14.59
2018-04-24T01:02:15.508Z,14.51
2018-04-24T01:03:15.655Z,14.64
2018-04-24T01:04:15.851Z,14.66
2018-04-24T01:05:15.943Z,14.59
2018-04-24T01:06:16.080Z,14.64
2018-04-24T01:07:16.238Z,14.53
2018-04-24T01:08:16.363Z,14.51
2018-04-24T01:09:16.499Z,14.40
2018-04-24T01:10:16.658Z,14.48
2018-04-24T01:11:16.798Z,14.44
2018-04-24T01:12:16.935Z,14.53
2018-04-24T01:13:17.097Z,14.49
2018-04-24T01:14:17.233Z,14.36
2018-04-24T01:15:17.375Z,14.49
2018-04-24T01:16:17.523Z,14.48
2018-04-24T01:17:17.653Z,14.51
2018-04-24T01:18:17.788Z,14.45
2018-04-24T01:19:17.928Z,14.52
2018-04-24T01:20:18.072Z,14.58
2018-04-24T01:21:18.205Z,14.45
2018-04-24T01:22:18.347Z,14.56
2018-04-24T01:23:18.492Z,14.51
2018-04-24T01:24:18.623Z,14.46
2018-04-24T01:25:18.763Z,14.51
2018-04-24T01:26:18.897Z,14.40
2018-04-24T01:27:19.032Z,14.21
2018-04-24T01:28:19.173Z,13.98
2018-04-24T01:29:19.334Z,13.67
2018-04-24T01:30:20.230Z,13.72
2018-04-24T01:31:19.617Z,13.78
2018-04-24T01:32:19.757Z,13.80
2018-04-24T01:33:19.929Z,13.93
2018-04-24T01:34:20.062Z,13.86
2018-04-24T01:35:20.202Z,13.83
2018-04-24T01:36:20.338Z,13.98
2018-04-24T01:37:20.476Z,13.97
2018-04-24T01:38:20.612Z,13.98
2018-04-24T01:39:20.751Z,13.94
2018-04-24T01:40:20.894Z,14.05
2018-04-24T01:41:21.025Z,13.97
2018-04-24T01:42:21.162Z,14.09
2018-04-24T01:43:21.303Z,14.01
2018-04-24T01:44:21.449Z,14.00
2018-04-24T01:45:21.580Z,13.94
2018-04-24T01:46:21.716Z,14.09
2018-04-24T01:47:21.857Z,14.03
2018-04-24T01:48:21.992Z,14.18
2018-04-24T01:49:22.128Z,14.21
2018-04-24T01:50:22.289Z,14.21
2018-04-24T01:51:22.432Z,13.98
2018-04-24T01:52:22.570Z,14.03
2018-04-24T01:53:22.706Z,13.96
2018-04-24T01:54:22.885Z,13.78
2018-04-24T01:55:23.021Z,13.64
2018-04-24T01:56:23.155Z,13.57
2018-04-24T01:57:23.299Z,13.40
2018-04-24T01:58:23.446Z,13.47
2018-04-24T01:59:23.585Z,13.55
2018-04-24T02:00:23.729Z,13.63
2018-04-24T02:01:23.862Z,13.57
2018-04-24T02:02:24.021Z,13.71
2018-04-24T02:03:24.149Z,13.67
2018-04-24T02:04:24.279Z,13.67
2018-04-24T02:05:24.422Z,13.71
2018-04-24T02:06:24.576Z,13.68
2018-04-24T02:07:24.710Z,13.67
2018-04-24T02:08:24.854Z,13.64
2018-04-24T02:09:25.008Z,13.65
2018-04-24T02:10:25.148Z,13.64
2018-04-24T02:11:25.287Z,13.68
2018-04-24T02:12:25.428Z,13.67
2018-04-24T02:13:25.583Z,13.72
2018-04-24T02:14:25.717Z,13.73
2018-04-24T02:15:25.855Z,13.75
2018-04-24T02:16:26.022Z,13.82
2018-04-24T02:17:26.164Z,13.67
2018-04-24T02:18:26.298Z,13.67
2018-04-24T02:19:26.434Z,13.71
2018-04-24T02:20:26.594Z,13.71
2018-04-24T02:21:26.723Z,13.80
2018-04-24T02:22:26.862Z,13.68
2018-04-24T02:23:27.001Z,13.71
2018-04-24T02:24:27.151Z,13.68
2018-04-24T02:25:27.296Z,13.82
2018-04-24T02:26:27.434Z,13.78
2018-04-24T02:27:27.571Z,13.75
2018-04-24T02:28:27.705Z,13.76
2018-04-24T02:29:27.880Z,13.71
2018-04-24T02:30:28.019Z,13.68
2018-04-24T02:31:28.167Z,13.73
2018-04-24T02:32:28.301Z,13.80
2018-04-24T02:33:28.437Z,13.90
2018-04-24T02:34:28.575Z,13.78
2018-04-24T02:35:28.717Z,13.76
2018-04-24T02:36:28.855Z,13.78
2018-04-24T02:37:28.987Z,13.67
2018-04-24T02:38:29.126Z,13.76
2018-04-24T02:39:29.273Z,13.72
2018-04-24T02:40:29.486Z,13.75
2018-04-24T02:41:29.552Z,13.68
2018-04-24T02:42:29.697Z,13.75
2018-04-24T02:43:29.831Z,13.76
2018-04-24T02:44:29.978Z,13.65
2018-04-24T02:45:30.108Z,13.67
2018-04-24T02:46:30.246Z,13.75
2018-04-24T02:47:30.387Z,13.67
2018-04-24T02:48:30.525Z,13.67
2018-04-24T02:49:30.657Z,13.64
2018-04-24T02:50:30.792Z,13.64
2018-04-24T02:51:30.933Z,13.60
2018-04-24T02:52:31.069Z,13.61
2018-04-24T02:53:31.204Z,13.53
2018-04-24T02:54:31.340Z,13.47
2018-04-24T02:55:31.477Z,13.49
2018-04-24T02:56:31.617Z,13.49
2018-04-24T02:57:31.754Z,13.45
2018-04-24T02:58:31.889Z,13.47
2018-04-24T02:59:32.031Z,13.46
2018-04-24T03:00:32.168Z,13.47
2018-04-24T03:01:32.305Z,13.43
2018-04-24T03:02:32.464Z,13.47
2018-04-24T03:03:32.593Z,13.46
2018-04-24T03:04:32.729Z,13.36
2018-04-24T03:05:32.869Z,13.45
2018-04-24T03:06:33.173Z,13.43
2018-04-24T03:07:33.138Z,13.35
2018-04-24T03:08:33.271Z,13.49
2018-04-24T03:09:33.521Z,13.36
2018-04-24T03:10:33.626Z,13.47
2018-04-24T03:11:33.631Z,13.49
2018-04-24T03:12:33.763Z,13.42
2018-04-24T03:13:33.900Z,13.35
2018-04-24T03:14:34.066Z,13.38
2018-04-24T03:15:34.171Z,13.36
2018-04-24T03:16:34.306Z,13.42
2018-04-24T03:17:34.440Z,13.39
2018-04-24T03:18:34.608Z,13.36
2018-04-24T03:19:34.742Z,13.35
2018-04-24T03:20:34.878Z,13.35
2018-04-24T03:21:35.011Z,13.42
2018-04-24T03:22:35.187Z,13.38
2018-04-24T03:23:35.305Z,13.26
2018-04-24T03:24:35.442Z,13.38
2018-04-24T03:25:35.598Z,13.39
2018-04-24T03:26:35.735Z,13.38
2018-04-24T03:27:35.868Z,13.38
2018-04-24T03:28:36.001Z,13.36
2018-04-24T03:29:36.167Z,13.38
2018-04-24T03:30:36.303Z,13.42
2018-04-24T03:31:36.436Z,13.38
2018-04-24T03:32:36.585Z,13.53
2018-04-24T03:33:36.724Z,13.42
2018-04-24T03:34:36.862Z,13.36
2018-04-24T03:35:36.993Z,13.40
2018-04-24T03:36:37.137Z,13.36
2018-04-24T03:37:37.278Z,13.29
2018-04-24T03:38:37.414Z,13.29
2018-04-24T03:39:37.554Z,13.39
2018-04-24T03:40:37.690Z,13.45
2018-04-24T03:41:37.834Z,13.47
2018-04-24T03:42:37.981Z,13.45
2018-04-24T03:43:38.120Z,13.47
2018-04-24T03:44:38.260Z,13.42
2018-04-24T03:45:38.391Z,13.36
2018-04-24T03:46:38.528Z,13.32
2018-04-24T03:47:38.665Z,13.39
2018-04-24T03:48:38.806Z,13.40
2018-04-24T03:49:38.945Z,13.38
2018-04-24T03:50:39.074Z,13.24
2018-04-24T03:51:39.198Z,13.35
2018-04-24T03:52:39.342Z,13.23
2018-04-24T03:53:39.479Z,13.27
2018-04-24T03:54:39.621Z,13.21
2018-04-24T03:55:39.753Z,13.35
2018-04-24T03:56:39.888Z,13.24
2018-04-24T03:57:40.029Z,13.24
2018-04-24T03:58:40.163Z,13.30
2018-04-24T03:59:40.297Z,13.36
2018-04-24T04:00:40.434Z,13.35
2018-04-24T04:01:40.565Z,13.36
2018-04-24T04:02:40.703Z,13.29
2018-04-24T04:03:40.839Z,13.39
2018-04-24T04:04:40.974Z,13.40
2018-04-24T04:05:41.113Z,13.17
2018-04-24T04:06:41.280Z,13.19
2018-04-24T04:07:41.453Z,13.17
2018-04-24T04:08:41.553Z,13.24
2018-04-24T04:09:41.690Z,13.17
2018-04-24T04:10:41.837Z,13.30
2018-04-24T04:11:41.977Z,13.17
2018-04-24T04:12:42.191Z,13.09
2018-04-24T04:13:42.248Z,13.13
2018-04-24T04:14:42.495Z,13.19
2018-04-24T04:15:42.624Z,13.17
2018-04-24T04:16:42.690Z,13.09
2018-04-24T04:17:42.826Z,13.04
2018-04-24T04:18:42.992Z,13.05
2018-04-24T04:19:43.123Z,12.99
2018-04-24T04:20:43.259Z,13.02
2018-04-24T04:21:43.395Z,13.04
2018-04-24T04:22:43.571Z,13.06
2018-04-24T04:23:43.718Z,13.02
2018-04-24T04:24:43.838Z,13.02
2018-04-24T04:25:43.975Z,13.16
2018-04-24T04:26:44.126Z,13.09
2018-04-24T04:27:44.263Z,13.09
2018-04-24T04:28:44.401Z,13.04
2018-04-24T04:29:44.539Z,13.04
2018-04-24T04:30:44.705Z,13.11
2018-04-24T04:31:44.840Z,13.02
2018-04-24T04:32:44.975Z,13.01
2018-04-24T04:33:45.117Z,13.13
2018-04-24T04:34:45.262Z,13.04
2018-04-24T04:35:45.432Z,12.96
2018-04-24T04:36:45.463Z,13.04
2018-04-24T04:37:45.600Z,12.91
2018-04-24T04:38:45.733Z,12.95
2018-04-24T04:39:45.876Z,12.90
2018-04-24T04:40:46.013Z,12.86
2018-04-24T04:41:46.156Z,12.86
2018-04-24T04:42:46.288Z,12.86
2018-04-24T04:43:46.432Z,12.87
2018-04-24T04:44:46.561Z,12.93
2018-04-24T04:45:46.695Z,12.66
2018-04-24T04:46:46.834Z,12.72
2018-04-24T04:47:47.042Z,12.77
2018-04-24T04:48:47.107Z,12.76
2018-04-24T04:49:47.244Z,12.79
2018-04-24T04:50:47.376Z,12.86
2018-04-24T04:51:47.514Z,12.83
2018-04-24T04:52:47.665Z,12.90
2018-04-24T04:53:47.799Z,12.90
2018-04-24T04:54:47.937Z,12.93
2018-04-24T04:55:48.097Z,13.08
2018-04-24T04:56:48.248Z,13.11
2018-04-24T04:57:48.370Z,13.04
2018-04-24T04:58:48.511Z,13.02
2018-04-24T04:59:48.647Z,13.08
2018-04-24T05:00:48.784Z,13.09
2018-04-24T05:01:48.911Z,13.08
2018-04-24T05:02:49.080Z,13.04
2018-04-24T05:03:49.207Z,13.13
2018-04-24T05:04:49.370Z,12.99
2018-04-24T05:05:49.504Z,13.02
2018-04-24T05:06:49.666Z,13.06
2018-04-24T05:07:49.806Z,13.13
2018-04-24T05:08:49.936Z,13.20
2018-04-24T05:09:50.094Z,13.16
2018-04-24T05:10:50.228Z,13.20
2018-04-24T05:11:50.376Z,13.35
2018-04-24T05:12:50.508Z,13.39
2018-04-24T05:13:50.669Z,13.39
2018-04-24T05:14:50.808Z,13.49
2018-04-24T05:15:50.944Z,13.35
2018-04-24T05:16:51.075Z,13.47
2018-04-24T05:17:51.254Z,13.53
2018-04-24T05:18:51.370Z,13.45
2018-04-24T05:19:51.510Z,13.45
2018-04-24T05:20:51.653Z,13.49
2018-04-24T05:21:51.798Z,13.60
2018-04-24T05:22:51.938Z,13.53
2018-04-24T05:23:52.069Z,13.64
2018-04-24T05:24:52.201Z,13.72
2018-04-24T05:25:52.363Z,13.65
2018-04-24T05:26:52.497Z,13.67
2018-04-24T05:27:52.634Z,13.65
2018-04-24T05:28:52.768Z,13.75
2018-04-24T05:29:52.922Z,13.76
2018-04-24T05:30:53.061Z,13.67
2018-04-24T05:31:53.195Z,13.78
2018-04-24T05:32:53.364Z,13.79
2018-04-24T05:33:53.490Z,13.68
2018-04-24T05:34:53.631Z,13.72
2018-04-24T05:35:53.768Z,13.73
2018-04-24T05:36:53.911Z,13.75
2018-04-24T05:37:54.043Z,13.80
2018-04-24T05:38:54.182Z,13.72
2018-04-24T05:39:54.324Z,13.78
2018-04-24T05:40:54.460Z,13.80
2018-04-24T05:41:54.605Z,13.78
2018-04-24T05:42:54.743Z,13.82
2018-04-24T05:43:54.877Z,13.80
2018-04-24T05:44:55.012Z,13.68
2018-04-24T05:45:55.149Z,13.67
2018-04-24T05:46:55.300Z,13.53
2018-04-24T05:47:55.443Z,13.63
2018-04-24T05:48:55.590Z,13.58
2018-04-24T05:49:55.721Z,13.64
2018-04-24T05:50:55.859Z,13.75
2018-04-24T05:51:55.992Z,13.65
2018-04-24T05:52:56.209Z,13.68
2018-04-24T05:53:56.281Z,13.75
2018-04-24T05:54:56.416Z,13.82
2018-04-24T05:55:56.562Z,13.85
2018-04-24T05:56:56.695Z,13.88
2018-04-24T05:57:56.895Z,13.86
2018-04-24T05:58:56.969Z,13.85
2018-04-24T05:59:57.108Z,13.86
2018-04-24T06:00:57.771Z,13.91
2018-04-24T06:01:57.414Z,13.83
2018-04-24T06:02:57.572Z,13.93
2018-04-24T06:03:57.705Z,13.91
2018-04-24T06:04:57.834Z,13.91
2018-04-24T06:05:57.993Z,14.00
2018-04-24T06:06:58.159Z,14.03
2018-04-24T06:07:58.309Z,14.04
2018-04-24T06:08:58.442Z,14.05
2018-04-24T06:09:58.579Z,14.05
2018-04-24T06:10:58.712Z,14.26
2018-04-24T06:11:58.851Z,14.15
2018-04-24T06:12:59.000Z,14.15
2018-04-24T06:13:59.158Z,14.27
2018-04-24T06:14:59.293Z,14.33
2018-04-24T06:15:59.429Z,14.28
2018-04-24T06:16:59.566Z,14.34
2018-04-24T06:17:59.723Z,14.38
2018-04-24T06:18:59.858Z,14.36
2018-04-24T06:19:59.995Z,14.44
2018-04-24T06:21:00.133Z,14.52
2018-04-24T06:22:00.289Z,14.56
2018-04-24T06:23:00.420Z,14.51
2018-04-24T06:24:00.559Z,14.59
2018-04-24T06:25:00.695Z,14.59
2018-04-24T06:26:00.869Z,14.63
2018-04-24T06:27:00.979Z,14.71
2018-04-24T06:28:01.116Z,14.86
2018-04-24T06:29:01.278Z,14.79
2018-04-24T06:30:01.415Z,14.90
2018-04-24T06:31:01.551Z,14.85
2018-04-24T06:32:01.696Z,15.01
2018-04-24T06:33:01.859Z,14.92
2018-04-24T06:34:01.985Z,15.01
2018-04-24T06:35:02.130Z,14.97
2018-04-24T06:36:02.330Z,15.05
2018-04-24T06:37:02.422Z,15.10
2018-04-24T06:38:02.558Z,15.15
2018-04-24T06:39:02.691Z,15.19
2018-04-24T06:40:02.875Z,15.19
2018-04-24T06:41:02.990Z,15.23
2018-04-24T06:42:03.134Z,15.26
2018-04-24T06:43:03.301Z,15.22
2018-04-24T06:44:03.435Z,15.36
2018-04-24T06:45:03.573Z,15.32
2018-04-24T06:46:03.715Z,15.33
2018-04-24T06:47:03.848Z,15.41
2018-04-24T06:48:03.991Z,15.35
2018-04-24T06:49:04.128Z,15.41
2018-04-24T06:50:04.268Z,15.32
2018-04-24T06:51:04.407Z,15.38
2018-04-24T06:52:04.546Z,15.22
2018-04-24T06:53:04.685Z,15.07
2018-04-24T06:54:04.844Z,14.97
2018-04-24T06:55:05.019Z,15.01
2018-04-24T06:56:05.090Z,14.83
2018-04-24T06:57:05.228Z,14.87
2018-04-24T06:58:05.363Z,14.89
2018-04-24T06:59:05.503Z,14.79
2018-04-24T07:00:05.684Z,14.79
2018-04-24T07:01:05.817Z,14.71
2018-04-24T07:02:05.964Z,14.79
2018-04-24T07:03:06.110Z,14.87
2018-04-24T07:04:06.242Z,14.92
2018-04-24T07:05:06.386Z,15.04
2018-04-24T07:06:06.526Z,14.89
2018-04-24T07:07:06.668Z,14.83
2018-04-24T07:08:06.814Z,14.78
2018-04-24T07:09:06.953Z,14.82
2018-04-24T07:10:07.112Z,14.70
2018-04-24T07:11:07.236Z,14.66
2018-04-24T07:12:07.424Z,14.67
2018-04-24T07:13:07.579Z,14.74
2018-04-24T07:14:07.720Z,14.53
2018-04-24T07:15:07.877Z,14.52
2018-04-24T07:16:08.003Z,14.48
2018-04-24T07:17:08.150Z,14.51
2018-04-24T07:18:08.288Z,14.63
2018-04-24T07:19:08.422Z,14.64
2018-04-24T07:20:08.574Z,14.61
2018-04-24T07:21:08.713Z,14.66
2018-04-24T07:22:08.935Z,14.74
2018-04-24T07:23:08.997Z,14.63
2018-04-24T07:24:09.149Z,14.73
2018-04-24T07:25:09.288Z,14.70
2018-04-24T07:26:09.426Z,14.52
2018-04-24T07:27:09.655Z,14.66
2018-04-24T07:28:09.674Z,14.66
2018-04-24T07:29:09.797Z,14.71
2018-04-24T07:30:09.932Z,14.83
2018-04-24T07:31:10.096Z,14.73
2018-04-24T07:32:10.229Z,14.69
2018-04-24T07:33:10.373Z,14.82
2018-04-24T07:34:10.514Z,14.78
2018-04-24T07:35:10.650Z,14.78
2018-04-24T07:36:10.778Z,14.83
2018-04-24T07:37:10.922Z,14.83
2018-04-24T07:38:11.070Z,14.89
2018-04-24T07:39:11.232Z,14.86
2018-04-24T07:40:11.374Z,14.93
2018-04-24T07:41:11.536Z,14.90
2018-04-24T07:42:11.640Z,15.03
2018-04-24T07:43:11.879Z,14.97
2018-04-24T07:44:11.951Z,14.99
2018-04-24T07:45:12.171Z,15.03
2018-04-24T07:46:12.252Z,14.96
2018-04-24T07:47:12.390Z,15.01
2018-04-24T07:48:12.522Z,15.03
2018-04-24T07:49:12.671Z,15.10
2018-04-24T07:50:12.802Z,15.23
2018-04-24T07:51:12.947Z,15.26
2018-04-24T07:52:13.077Z,15.20
2018-04-24T07:53:13.215Z,15.36
2018-04-24T07:54:13.350Z,15.27
2018-04-24T07:55:13.491Z,15.26
2018-04-24T07:56:13.635Z,15.22
2018-04-24T07:57:13.770Z,15.29
2018-04-24T07:58:13.915Z,15.33
2018-04-24T07:59:14.050Z,15.40
2018-04-24T08:00:14.201Z,15.30
2018-04-24T08:01:14.333Z,15.29
2018-04-24T08:02:14.471Z,15.36
2018-04-24T08:03:14.613Z,15.40
2018-04-24T08:04:14.746Z,15.36
2018-04-24T08:05:14.887Z,15.41
2018-04-24T08:06:15.020Z,15.45
2018-04-24T08:07:15.159Z,15.51
2018-04-24T08:08:15.409Z,15.54
2018-04-24T08:09:15.395Z,15.51
2018-04-24T08:10:15.533Z,15.58
2018-04-24T08:11:15.671Z,15.73
2018-04-24T08:12:15.809Z,15.66
2018-04-24T08:13:15.943Z,15.56
2018-04-24T08:14:16.107Z,15.47
2018-04-24T08:15:16.242Z,15.62
2018-04-24T08:16:16.378Z,15.52
2018-04-24T08:17:16.514Z,15.65
2018-04-24T08:18:16.670Z,15.87
2018-04-24T08:19:16.807Z,15.87
2018-04-24T08:20:16.944Z,15.77
2018-04-24T08:21:17.083Z,15.73
2018-04-24T08:22:17.245Z,15.73
2018-04-24T08:23:17.386Z,15.54
2018-04-24T08:24:17.528Z,15.63
2018-04-24T08:25:17.671Z,15.69
2018-04-24T08:26:17.808Z,15.78
2018-04-24T08:27:17.947Z,15.65
2018-04-24T08:28:18.087Z,15.72
2018-04-24T08:29:18.245Z,15.76
2018-04-24T08:30:18.374Z,15.65
2018-04-24T08:31:18.512Z,15.81
2018-04-24T08:32:18.651Z,15.93
2018-04-24T08:33:18.809Z,15.96
2018-04-24T08:34:18.946Z,16.02
2018-04-24T08:35:19.081Z,15.96
2018-04-24T08:36:19.221Z,15.99
2018-04-24T08:37:19.360Z,16.05
2018-04-24T08:38:19.497Z,16.13
2018-04-24T08:39:19.637Z,16.22
2018-04-24T08:40:19.783Z,16.24
2018-04-24T08:41:19.927Z,16.26
2018-04-24T08:42:20.066Z,16.24
2018-04-24T08:43:20.200Z,16.05
2018-04-24T08:44:20.340Z,15.88
2018-04-24T08:45:20.481Z,15.98
2018-04-24T08:46:20.620Z,15.93
2018-04-24T08:47:20.759Z,16.06
2018-04-24T08:48:20.898Z,16.21
2018-04-24T08:49:21.091Z,16.25
2018-04-24T08:50:21.174Z,16.08
2018-04-24T08:51:21.312Z,16.32
2018-04-24T08:52:21.447Z,16.44
2018-04-24T08:53:21.593Z,16.44
2018-04-24T08:54:21.735Z,16.36
2018-04-24T08:55:21.917Z,16.25
2018-04-24T08:56:22.077Z,16.24
2018-04-24T08:57:22.132Z,16.29
2018-04-24T08:58:22.273Z,16.51
2018-04-24T08:59:22.415Z,16.51
2018-04-24T09:00:22.560Z,16.51
2018-04-24T09:01:22.692Z,16.39
2018-04-24T09:02:22.833Z,16.42
2018-04-24T09:03:22.965Z,16.33
2018-04-24T09:04:23.102Z,16.42
2018-04-24T09:05:23.241Z,16.57
2018-04-24T09:06:23.385Z,16.61
2018-04-24T09:07:23.523Z,16.49
2018-04-24T09:08:23.661Z,16.54
2018-04-24T09:09:23.808Z,16.64
2018-04-24T09:10:23.971Z,16.65
2018-04-24T09:11:24.600Z,16.62
2018-04-24T09:12:24.254Z,16.67
2018-04-24T09:13:24.426Z,16.84
2018-04-24T09:14:24.554Z,16.91
2018-04-24T09:15:24.701Z,17.01
2018-04-24T09:16:24.836Z,16.87
2018-04-24T09:17:25.005Z,16.92
2018-04-24T09:18:25.140Z,16.99
2018-04-24T09:19:25.279Z,16.88
2018-04-24T09:20:25.414Z,16.79
2018-04-24T09:21:25.589Z,16.94
2018-04-24T09:22:25.718Z,16.91
2018-04-24T09:23:25.857Z,16.84
2018-04-24T09:24:26.011Z,16.79
2018-04-24T09:25:26.146Z,16.83
2018-04-24T09:26:26.287Z,17.02
2018-04-24T09:27:26.441Z,17.09
2018-04-24T09:28:26.576Z,17.07
2018-04-24T09:29:26.716Z,17.17
2018-04-24T09:30:26.856Z,17.25
2018-04-24T09:31:27.019Z,17.17
2018-04-24T09:32:27.161Z,17.09
2018-04-24T09:33:27.317Z,17.06
2018-04-24T09:34:27.441Z,16.99
2018-04-24T09:35:27.607Z,17.14
2018-04-24T09:36:27.742Z,17.07
2018-04-24T09:37:27.882Z,17.01
2018-04-24T09:38:28.026Z,17.04
2018-04-24T09:39:28.194Z,16.88
2018-04-24T09:40:28.324Z,16.67
2018-04-24T09:41:28.460Z,16.80
2018-04-24T09:42:28.600Z,16.90
2018-04-24T09:43:28.769Z,16.88
2018-04-24T09:44:28.898Z,16.97
2018-04-24T09:45:29.041Z,17.14
2018-04-24T09:46:29.170Z,17.06
2018-04-24T09:47:29.311Z,17.17
2018-04-24T09:48:29.458Z,17.28
2018-04-24T09:49:29.605Z,17.54
2018-04-24T09:50:29.737Z,17.63
2018-04-24T09:51:29.895Z,17.81
2018-04-24T09:52:30.040Z,17.86
2018-04-24T09:53:30.170Z,17.90
2018-04-24T09:54:30.307Z,17.78
2018-04-24T09:55:30.449Z,18.02
2018-04-24T09:56:30.593Z,18.06
2018-04-24T09:57:30.731Z,18.31
2018-04-24T09:58:30.876Z,18.48
2018-04-24T09:59:31.026Z,18.56
2018-04-24T10:00:31.160Z,18.63
2018-04-24T10:01:31.293Z,18.38
2018-04-24T10:02:31.453Z,18.66
2018-04-24T10:03:32.091Z,18.75
2018-04-24T10:04:31.702Z,18.78
2018-04-24T10:05:31.842Z,18.88
2018-04-24T10:06:31.983Z,18.94
2018-04-24T10:07:32.128Z,18.96
2018-04-24T10:08:32.266Z,18.78
2018-04-24T10:09:32.423Z,18.91
2018-04-24T10:10:32.555Z,18.98
2018-04-24T10:11:32.692Z,18.93
2018-04-24T10:12:32.833Z,18.91
2018-04-24T10:13:33.002Z,19.00
2018-04-24T10:14:33.123Z,19.05
2018-04-24T10:15:33.266Z,19.00
2018-04-24T10:16:33.431Z,19.07
2018-04-24T10:17:33.561Z,19.22
2018-04-24T10:18:33.745Z,19.32
2018-04-24T10:19:33.841Z,19.50
2018-04-24T10:20:33.985Z,19.49
2018-04-24T10:21:34.143Z,19.32
2018-04-24T10:22:34.257Z,19.38
2018-04-24T10:23:34.403Z,19.57
2018-04-24T10:24:34.544Z,19.75
2018-04-24T10:25:34.684Z,19.93
2018-04-24T10:26:34.824Z,19.99
2018-04-24T10:27:34.965Z,20.08
2018-04-24T10:28:35.113Z,20.04
2018-04-24T10:29:35.252Z,20.11
2018-04-24T10:30:35.399Z,19.77
2018-04-24T10:31:35.542Z,19.32
2018-04-24T10:32:35.707Z,19.27
2018-04-24T10:33:35.846Z,19.20
2018-04-24T10:34:35.990Z,19.08
2018-04-24T10:35:36.129Z,19.22
2018-04-24T10:36:36.297Z,19.27
2018-04-24T10:37:36.433Z,19.07
2018-04-24T10:38:36.575Z,19.05
2018-04-24T10:39:36.726Z,18.88
2018-04-24T10:40:36.869Z,18.78
2018-04-24T10:41:37.010Z,18.71
2018-04-24T10:42:37.155Z,18.85
2018-04-24T10:43:37.309Z,18.97
2018-04-24T10:44:37.447Z,18.76
2018-04-24T10:45:37.588Z,18.76
2018-04-24T10:46:37.723Z,18.93
2018-04-24T10:47:37.882Z,18.83
2018-04-24T10:48:38.009Z,18.68
2018-04-24T10:49:38.149Z,18.79
2018-04-24T10:50:38.288Z,18.82
2018-04-24T10:51:38.532Z,18.82
2018-04-24T10:52:38.603Z,18.76
2018-04-24T10:53:38.734Z,19.01
2018-04-24T10:54:38.870Z,18.68
2018-04-24T10:55:39.027Z,18.79
2018-04-24T10:56:39.165Z,18.63
2018-04-24T10:57:39.320Z,18.71
2018-04-24T10:58:39.464Z,18.78
2018-04-24T10:59:39.625Z,19.01
2018-04-24T11:00:39.800Z,19.04
2018-04-24T11:01:39.903Z,19.07
2018-04-24T11:02:40.074Z,18.61
2018-04-24T11:03:40.210Z,18.75
2018-04-24T11:04:40.359Z,18.78
2018-04-24T11:05:40.529Z,18.64
2018-04-24T11:06:40.712Z,18.56
2018-04-24T11:07:40.795Z,18.63
2018-04-24T11:08:40.927Z,18.70
2018-04-24T11:09:41.090Z,18.75
2018-04-24T11:10:41.219Z,18.83
2018-04-24T11:11:41.363Z,18.71
2018-04-24T11:12:41.537Z,18.67
2018-04-24T11:13:41.675Z,18.74
2018-04-24T11:14:41.821Z,18.56
2018-04-24T11:15:41.959Z,18.41
2018-04-24T11:16:42.104Z,18.42
2018-04-24T11:17:42.251Z,18.27
2018-04-24T11:18:42.397Z,18.09
2018-04-24T11:19:42.538Z,18.24
2018-04-24T11:20:42.684Z,18.34
2018-04-24T11:21:42.828Z,18.46
2018-04-24T11:22:42.983Z,18.49
2018-04-24T11:23:43.111Z,18.52
2018-04-24T11:24:43.250Z,18.36
2018-04-24T11:25:43.396Z,18.45
2018-04-24T11:26:43.604Z,18.46
2018-04-24T11:27:43.691Z,18.56
2018-04-24T11:28:43.831Z,18.48
2018-04-24T11:29:44.638Z,18.45
2018-04-24T11:30:44.065Z,18.54
2018-04-24T11:31:44.200Z,18.46
2018-04-24T11:32:44.339Z,18.45
2018-04-24T11:33:44.483Z,18.71
2018-04-24T11:34:44.628Z,18.71
2018-04-24T11:35:44.769Z,18.68
2018-04-24T11:36:44.996Z,18.52
2018-04-24T11:37:45.053Z,18.61
2018-04-24T11:38:45.205Z,18.60
2018-04-24T11:39:45.347Z,18.61
2018-04-24T11:40:45.485Z,18.61
2018-04-24T11:41:45.627Z,18.56
2018-04-24T11:42:45.766Z,18.57
2018-04-24T11:43:45.916Z,18.63
2018-04-24T11:44:46.042Z,18.61
2018-04-24T11:45:46.180Z,18.63
2018-04-24T11:46:46.324Z,18.57
2018-04-24T11:47:46.472Z,18.61
2018-04-24T11:48:46.630Z,18.51
2018-04-24T11:49:46.767Z,18.58
2018-04-24T11:50:46.919Z,18.54
2018-04-24T11:51:47.070Z,18.48
2018-04-24T11:52:47.226Z,18.51
2018-04-24T11:53:47.366Z,18.43
2018-04-24T11:54:47.503Z,18.33
2018-04-24T11:55:47.673Z,18.23
2018-04-24T11:56:47.797Z,18.15
2018-04-24T11:57:47.944Z,18.15
2018-04-24T11:58:48.086Z,18.15
2018-04-24T11:59:48.280Z,18.17
2018-04-24T12:00:48.388Z,18.12
2018-04-24T12:01:48.529Z,18.11
2018-04-24T12:02:48.698Z,18.09
2018-04-24T12:03:48.841Z,18.20
2018-04-24T12:04:48.982Z,18.12
2018-04-24T12:05:49.124Z,18.09
2018-04-24T12:06:49.285Z,18.12
2018-04-24T12:07:49.421Z,18.20
2018-04-24T12:08:49.565Z,18.18
2018-04-24T12:09:49.714Z,18.12
2018-04-24T12:10:49.915Z,18.21
2018-04-24T12:11:50.018Z,18.28
2018-04-24T12:12:50.165Z,18.24
2018-04-24T12:13:50.299Z,18.26
2018-04-24T12:14:50.434Z,18.27
2018-04-24T12:15:50.577Z,18.45
2018-04-24T12:16:50.746Z,18.28
2018-04-24T12:17:50.890Z,18.31
2018-04-24T12:18:51.031Z,18.31
2018-04-24T12:19:51.171Z,18.18
2018-04-24T12:20:51.333Z,18.31
2018-04-24T12:21:51.465Z,18.34
2018-04-24T12:22:51.600Z,18.24
2018-04-24T12:23:51.741Z,18.15
2018-04-24T12:24:51.880Z,18.15
2018-04-24T12:25:52.030Z,18.05
2018-04-24T12:26:52.161Z,18.18
2018-04-24T12:27:52.309Z,18.13
2018-04-24T12:28:52.442Z,18.11
2018-04-24T12:29:52.581Z,18.13
2018-04-24T12:30:52.741Z,18.24
2018-04-24T12:31:52.883Z,18.33
2018-04-24T12:32:53.030Z,18.42
2018-04-24T12:33:53.175Z,18.51
2018-04-24T12:34:53.313Z,18.33
2018-04-24T12:35:53.456Z,18.43
2018-04-24T12:36:53.597Z,18.56
2018-04-24T12:37:53.733Z,18.56
2018-04-24T12:38:53.903Z,18.61
2018-04-24T12:39:54.019Z,18.63
2018-04-24T12:40:54.179Z,18.58
2018-04-24T12:41:54.323Z,18.68
2018-04-24T12:42:54.458Z,18.75
2018-04-24T12:43:54.594Z,18.76
2018-04-24T12:44:54.736Z,18.75
2018-04-24T12:45:54.881Z,18.71
2018-04-24T12:46:55.020Z,18.81
2018-04-24T12:47:55.168Z,18.83
2018-04-24T12:48:55.302Z,18.86
2018-04-24T12:49:55.445Z,19.00
2018-04-24T12:50:55.590Z,19.05
2018-04-24T12:51:55.737Z,19.12
2018-04-24T12:52:55.880Z,19.04
2018-04-24T12:53:56.018Z,18.85